createdAt,value
2019-06-01T00:02:23.348Z,34.23
2019-06-01T00:04:58.517Z,34.48
2019-06-01T00:07:33.356Z,34.05
2019-06-01T00:10:08.587Z,33.92
2019-06-01T00:12:43.567Z,33.80
2019-06-01T00:15:18.539Z,34.50
2019-06-01T00:17:53.387Z,34.33
2019-06-01T00:20:28.312Z,36.95
2019-06-01T00:23:03.072Z,34.65
2019-06-01T00:25:40.341Z,34.80
2019-06-01T00:28:15.356Z,34.13
2019-06-01T00:30:50.385Z,34.30
2019-06-01T00:33:25.289Z,33.90
2019-06-01T00:36:00.068Z,34.25
2019-06-01T00:38:34.909Z,34.40
2019-06-01T00:41:09.773Z,34.88
2019-06-01T00:43:44.623Z,35.50
2019-06-01T00:46:38.664Z,34.23
2019-06-01T00:49:14.471Z,34.18
2019-06-01T00:51:49.324Z,33.85
2019-06-01T00:54:26.050Z,33.92
2019-06-01T00:57:00.990Z,33.92
2019-06-01T00:59:35.772Z,34.23
2019-06-01T01:02:10.779Z,34.38
2019-06-01T01:04:46.374Z,34.70
2019-06-01T01:07:21.303Z,34.05
2019-06-01T01:09:56.176Z,34.23
2019-06-01T01:12:31.018Z,34.25
2019-06-01T01:15:06.689Z,34.90
2019-06-01T01:17:41.632Z,34.33
2019-06-01T01:20:16.400Z,34.60
2019-06-01T01:22:52.244Z,34.48
2019-06-01T01:25:27.291Z,34.63
2019-06-01T01:28:02.303Z,35.38
2019-06-01T01:30:37.304Z,35.28
2019-06-01T01:33:12.348Z,35.15
2019-06-01T01:35:47.558Z,34.83
2019-06-01T01:38:22.528Z,35.25
2019-06-01T01:40:59.395Z,34.48
2019-06-01T01:43:33.916Z,34.83
2019-06-01T01:46:08.839Z,34.78
2019-06-01T01:48:43.629Z,34.20
2019-06-01T01:51:18.484Z,34.92
2019-06-01T01:53:54.595Z,35.70
2019-06-01T01:56:29.866Z,34.90
2019-06-01T01:59:04.788Z,34.55
2019-06-01T02:01:39.715Z,34.45
2019-06-01T02:04:14.655Z,34.30
2019-06-01T02:06:51.633Z,34.20
2019-06-01T02:09:26.632Z,34.05
2019-06-01T02:12:01.968Z,34.10
2019-06-01T02:14:36.819Z,34.20
2019-06-01T02:17:11.651Z,33.78
2019-06-01T02:19:46.488Z,33.67
2019-06-01T02:22:21.244Z,34.00
2019-06-01T02:24:57.764Z,33.70
2019-06-01T02:27:32.696Z,34.00
2019-06-01T02:30:07.946Z,33.85
2019-06-01T02:32:42.800Z,34.13
2019-06-01T02:35:18.033Z,34.17
2019-06-01T02:37:54.476Z,34.20
2019-06-01T02:40:30.494Z,34.03
2019-06-01T02:43:06.765Z,34.43
2019-06-01T02:45:43.031Z,33.70
2019-06-01T02:48:17.952Z,34.00
2019-06-01T02:50:52.703Z,33.67
2019-06-01T02:53:27.475Z,33.80
2019-06-01T02:56:04.306Z,33.88
2019-06-01T02:58:39.136Z,33.67
2019-06-01T03:01:31.972Z,33.83
2019-06-01T03:04:09.075Z,33.92
2019-06-01T03:06:44.957Z,35.13
2019-06-01T03:09:21.759Z,34.10
2019-06-01T03:12:00.373Z,34.05
2019-06-01T03:14:37.034Z,33.73
2019-06-01T03:17:14.508Z,34.73
2019-06-01T03:19:52.248Z,34.15
2019-06-01T03:22:29.747Z,33.83
2019-06-01T03:25:05.936Z,33.85
2019-06-01T03:27:43.811Z,33.53
2019-06-01T03:30:28.367Z,33.57
2019-06-01T03:33:03.917Z,33.78
2019-06-01T03:35:39.816Z,33.33
2019-06-01T03:38:14.749Z,33.75
2019-06-01T03:40:49.516Z,33.55
2019-06-01T03:43:24.721Z,33.40
2019-06-01T03:46:00.490Z,34.05
2019-06-01T03:48:35.479Z,33.98
2019-06-01T03:51:11.973Z,33.65
2019-06-01T03:53:46.997Z,34.23
2019-06-01T03:56:21.933Z,33.73
2019-06-01T03:58:56.683Z,34.08
2019-06-01T04:01:32.684Z,33.33
2019-06-01T04:04:07.576Z,33.73
2019-06-01T04:06:42.349Z,33.75
2019-06-01T04:09:17.116Z,33.95
2019-06-01T04:11:51.883Z,33.90
2019-06-01T04:14:26.865Z,33.70
2019-06-01T04:17:02.020Z,34.50
2019-06-01T04:19:36.858Z,33.65
2019-06-01T04:22:13.548Z,33.63
2019-06-01T04:24:49.287Z,33.60
2019-06-01T04:27:24.290Z,34.10
2019-06-01T04:29:59.049Z,33.60
2019-06-01T04:32:48.807Z,34.35
2019-06-01T04:35:11.107Z,34.83
2019-06-01T04:37:46.035Z,34.10
2019-06-01T04:40:20.948Z,34.33
2019-06-01T04:42:55.792Z,34.75
2019-06-01T04:45:30.561Z,34.70
2019-06-01T04:48:06.407Z,34.15
2019-06-01T04:50:41.215Z,35.13
2019-06-01T04:53:15.967Z,36.88
2019-06-01T04:55:50.800Z,37.90
2019-06-01T04:58:25.544Z,36.03
2019-06-01T05:01:00.391Z,35.48
2019-06-01T05:03:35.142Z,35.15
2019-06-01T05:06:11.235Z,35.83
2019-06-01T05:08:46.304Z,36.75
2019-06-01T05:11:21.139Z,35.10
2019-06-01T05:13:56.067Z,35.45
2019-06-01T05:16:30.845Z,35.13
2019-06-01T05:19:06.032Z,35.00
2019-06-01T05:21:42.105Z,34.80
2019-06-01T05:24:17.300Z,34.90
2019-06-01T05:26:52.106Z,34.27
2019-06-01T05:29:26.872Z,34.35
2019-06-01T05:32:01.639Z,35.55
2019-06-01T05:34:36.471Z,34.70
2019-06-01T05:37:12.333Z,35.45
2019-06-01T05:39:47.349Z,34.67
2019-06-01T05:42:22.174Z,35.08
2019-06-01T05:44:56.994Z,36.20
2019-06-01T05:47:31.748Z,36.45
2019-06-01T05:50:06.838Z,46.90
2019-06-01T05:52:41.667Z,35.52
2019-06-01T05:55:18.768Z,34.73
2019-06-01T05:57:53.626Z,35.35
2019-06-01T06:00:40.213Z,35.88
2019-06-01T06:03:18.006Z,34.90
2019-06-01T06:05:51.621Z,35.10
2019-06-01T06:08:26.476Z,36.35
2019-06-01T06:11:01.287Z,35.23
2019-06-01T06:13:36.081Z,35.03
2019-06-01T06:16:11.942Z,35.85
2019-06-01T06:18:48.622Z,35.20
2019-06-01T06:21:23.696Z,35.43
2019-06-01T06:23:58.439Z,37.05
2019-06-01T06:26:33.248Z,35.45
2019-06-01T06:29:08.128Z,35.52
2019-06-01T06:31:42.915Z,35.98
2019-06-01T06:34:17.822Z,36.23
2019-06-01T06:36:52.782Z,35.98
2019-06-01T06:39:27.735Z,36.85
2019-06-01T06:42:02.508Z,36.65
2019-06-01T06:44:38.260Z,37.60
2019-06-01T06:47:13.108Z,37.50
2019-06-01T06:49:47.856Z,36.38
2019-06-01T06:52:23.632Z,38.48
2019-06-01T06:55:03.559Z,37.42
2019-06-01T06:57:38.400Z,37.28
2019-06-01T07:00:13.647Z,37.75
2019-06-01T07:02:51.126Z,37.00
2019-06-01T07:05:25.979Z,37.85
2019-06-01T07:08:00.774Z,38.40
2019-06-01T07:10:38.504Z,39.18
2019-06-01T07:13:14.014Z,39.33
2019-06-01T07:16:11.361Z,37.75
2019-06-01T07:18:49.461Z,38.30
2019-06-01T07:21:26.384Z,39.27
2019-06-01T07:24:01.249Z,37.08
2019-06-01T07:26:38.670Z,39.55
2019-06-01T07:29:13.698Z,39.15
2019-06-01T07:31:49.903Z,39.40
2019-06-01T07:34:43.964Z,38.50
2019-06-01T07:37:20.524Z,38.58
2019-06-01T07:39:56.044Z,39.98
2019-06-01T07:42:30.798Z,39.20
2019-06-01T07:45:06.996Z,38.23
2019-06-01T07:47:44.019Z,41.28
2019-06-01T07:50:19.822Z,38.80
2019-06-01T07:52:55.147Z,38.45
2019-06-01T07:55:31.733Z,38.85
2019-06-01T07:58:08.341Z,38.73
2019-06-01T08:00:43.250Z,37.90
2019-06-01T08:03:19.149Z,37.83
2019-06-01T08:05:54.225Z,38.20
2019-06-01T08:08:29.470Z,37.83
2019-06-01T08:11:05.583Z,37.63
2019-06-01T08:13:40.434Z,38.08
2019-06-01T08:16:15.424Z,37.73
2019-06-01T08:18:53.046Z,37.17
2019-06-01T08:21:28.042Z,37.93
2019-06-01T08:24:03.083Z,37.80
2019-06-01T08:26:37.944Z,37.90
2019-06-01T08:29:12.691Z,38.23
2019-06-01T08:31:47.527Z,38.85
2019-06-01T08:34:22.742Z,38.50
2019-06-01T08:36:57.576Z,38.50
2019-06-01T08:39:34.128Z,38.05
2019-06-01T08:42:08.787Z,38.73
2019-06-01T08:44:43.541Z,40.17
2019-06-01T08:47:18.376Z,38.30
2019-06-01T08:49:53.168Z,39.13
2019-06-01T08:52:28.125Z,36.63
2019-06-01T08:55:03.103Z,37.78
2019-06-01T08:57:38.037Z,38.45
2019-06-01T09:00:13.044Z,38.87
2019-06-01T09:02:47.819Z,38.83
2019-06-01T09:05:24.944Z,37.37
2019-06-01T09:07:59.312Z,37.30
2019-06-01T09:10:35.614Z,38.58
2019-06-01T09:13:10.468Z,37.65
2019-06-01T09:15:45.395Z,37.93
2019-06-01T09:18:20.305Z,36.95
2019-06-01T09:20:55.128Z,36.83
2019-06-01T09:23:29.900Z,36.53
2019-06-01T09:26:04.796Z,36.95
2019-06-01T09:28:39.560Z,36.08
2019-06-01T09:31:14.340Z,35.80
2019-06-01T09:33:49.264Z,35.85
2019-06-01T09:36:24.100Z,35.88
2019-06-01T09:39:00.128Z,37.00
2019-06-01T09:41:34.951Z,37.08
2019-06-01T09:44:09.741Z,37.90
2019-06-01T09:46:44.665Z,37.83
2019-06-01T09:49:19.591Z,36.90
2019-06-01T09:51:54.428Z,36.90
2019-06-01T09:54:30.689Z,36.42
2019-06-01T09:57:06.015Z,39.92
2019-06-01T09:59:40.880Z,38.92
2019-06-01T10:02:15.733Z,37.45
2019-06-01T10:04:50.513Z,37.53
2019-06-01T10:07:25.409Z,37.40
2019-06-01T10:10:00.170Z,36.60
2019-06-01T10:12:36.050Z,37.20
2019-06-01T10:15:11.240Z,37.83
2019-06-01T10:17:46.080Z,37.30
2019-06-01T10:20:21.057Z,37.30
2019-06-01T10:22:56.119Z,36.88
2019-06-01T10:25:32.293Z,36.83
2019-06-01T10:28:07.414Z,37.30
2019-06-01T10:30:42.332Z,37.13
2019-06-01T10:33:17.186Z,35.68
2019-06-01T10:35:52.004Z,36.15
2019-06-01T10:38:26.876Z,36.65
2019-06-01T10:41:01.821Z,36.15
2019-06-01T10:43:37.709Z,35.90
2019-06-01T10:46:13.715Z,36.17
2019-06-01T10:48:48.498Z,36.42
2019-06-01T10:51:23.332Z,37.35
2019-06-01T10:53:58.172Z,36.35
2019-06-01T10:56:34.322Z,36.55
2019-06-01T10:59:09.407Z,36.35
2019-06-01T11:01:44.361Z,36.00
2019-06-01T11:04:19.282Z,35.83
2019-06-01T11:06:54.196Z,36.33
2019-06-01T11:09:28.955Z,36.35
2019-06-01T11:12:03.898Z,36.00
2019-06-01T11:14:39.065Z,36.38
2019-06-01T11:17:14.038Z,36.95
2019-06-01T11:19:48.840Z,36.63
2019-06-01T11:22:23.633Z,36.68
2019-06-01T11:24:58.481Z,36.75
2019-06-01T11:27:33.571Z,36.65
2019-06-01T11:30:10.028Z,36.80
2019-06-01T11:32:45.187Z,36.35
2019-06-01T11:35:20.225Z,36.67
2019-06-01T11:38:21.438Z,37.60
2019-06-01T11:40:59.765Z,36.90
2019-06-01T11:43:36.686Z,36.95
2019-06-01T11:46:11.886Z,36.63
2019-06-01T11:48:46.962Z,37.03
2019-06-01T11:51:22.040Z,37.58
2019-06-01T11:53:59.423Z,36.93
2019-06-01T11:56:37.321Z,37.08
2019-06-01T11:59:13.616Z,36.93
2019-06-01T12:01:48.895Z,37.15
2019-06-01T12:07:22.057Z,36.58
2019-06-01T12:09:56.967Z,36.20
2019-06-01T12:12:33.336Z,36.40
2019-06-01T12:15:09.386Z,36.50
2019-06-01T12:17:44.937Z,36.68
2019-06-01T12:20:20.241Z,37.13
2019-06-01T12:22:55.228Z,36.60
2019-06-01T12:25:34.306Z,36.73
2019-06-01T12:28:08.419Z,37.03
2019-06-01T12:30:43.756Z,36.48
2019-06-01T12:33:18.822Z,37.30
2019-06-01T12:35:53.762Z,36.65
2019-06-01T12:38:34.776Z,36.65
2019-06-01T12:41:12.195Z,36.65
2019-06-01T12:43:49.120Z,37.15
2019-06-01T12:46:24.076Z,37.38
2019-06-01T12:48:58.956Z,36.98
2019-06-01T12:51:33.995Z,37.53
2019-06-01T12:54:09.125Z,37.50
2019-06-01T12:56:44.750Z,36.88
2019-06-01T12:59:19.867Z,36.53
2019-06-01T13:01:54.943Z,36.33
2019-06-01T13:04:29.951Z,36.98
2019-06-01T13:07:04.788Z,36.85
2019-06-01T13:09:39.608Z,36.35
2019-06-01T13:12:14.452Z,36.45
2019-06-01T13:14:55.236Z,36.77
2019-06-01T13:17:30.216Z,37.05
2019-06-01T13:20:05.610Z,36.93
2019-06-01T13:22:41.277Z,36.77
2019-06-01T13:25:16.584Z,36.50
2019-06-01T13:27:52.484Z,36.98
2019-06-01T13:30:27.685Z,36.63
2019-06-01T13:33:02.818Z,37.00
2019-06-01T13:35:37.656Z,36.75
2019-06-01T13:38:12.776Z,36.88
2019-06-01T13:40:48.966Z,36.95
2019-06-01T13:43:24.074Z,37.15
2019-06-01T13:45:58.944Z,37.15
2019-06-01T13:48:33.868Z,36.88
2019-06-01T13:51:08.628Z,36.40
2019-06-01T13:53:46.331Z,36.83
2019-06-01T13:56:21.295Z,36.45
2019-06-01T13:58:56.039Z,36.95
2019-06-01T14:01:33.825Z,36.50
2019-06-01T14:04:08.695Z,37.25
2019-06-01T14:06:44.989Z,38.08
2019-06-01T14:09:21.958Z,36.80
2019-06-01T14:11:56.499Z,36.45
2019-06-01T14:14:31.341Z,37.08
2019-06-01T14:17:06.251Z,36.68
2019-06-01T14:20:00.224Z,36.63
2019-06-01T14:22:35.088Z,37.00
2019-06-01T14:25:14.551Z,37.03
2019-06-01T14:27:48.195Z,36.60
2019-06-01T14:30:24.153Z,36.20
2019-06-01T14:33:00.144Z,36.58
2019-06-01T14:35:36.038Z,36.55
2019-06-01T14:38:11.046Z,38.75
2019-06-01T14:43:39.896Z,36.45
2019-06-01T14:46:14.896Z,37.40
2019-06-01T14:48:51.565Z,36.77
2019-06-01T14:51:26.672Z,36.33
2019-06-01T14:54:01.660Z,37.48
2019-06-01T14:56:36.526Z,36.83
2019-06-01T14:59:11.356Z,37.10
2019-06-01T15:01:46.156Z,37.50
2019-06-01T15:04:20.949Z,36.73
2019-06-01T15:06:58.659Z,38.80
2019-06-01T15:09:33.703Z,37.73
2019-06-01T15:12:08.682Z,37.93
2019-06-01T15:14:43.701Z,38.38
2019-06-01T15:17:18.905Z,38.88
2019-06-01T15:22:47.936Z,37.55
2019-06-01T15:25:22.944Z,37.53
2019-06-01T15:27:58.883Z,37.42
2019-06-01T15:30:34.062Z,37.28
2019-06-01T15:33:09.088Z,38.55
2019-06-01T15:35:46.252Z,38.25
2019-06-01T15:38:24.301Z,37.50
2019-06-01T15:41:00.554Z,37.80
2019-06-01T15:43:36.518Z,36.58
2019-06-01T15:46:11.272Z,36.75
2019-06-01T15:48:46.235Z,36.65
2019-06-01T15:51:21.254Z,36.75
2019-06-01T15:53:59.027Z,37.55
2019-06-01T15:56:34.218Z,37.17
2019-06-01T15:59:09.155Z,37.75
2019-06-01T16:01:44.222Z,37.30
2019-06-01T16:04:19.179Z,37.73
2019-06-01T16:06:54.991Z,37.50
2019-06-01T16:09:42.136Z,37.30
2019-06-01T16:12:06.896Z,37.50
2019-06-01T16:14:44.612Z,37.93
2019-06-01T16:17:19.736Z,37.58
2019-06-01T16:19:55.879Z,37.70
2019-06-01T16:22:50.125Z,38.08
2019-06-01T16:25:25.115Z,38.00
2019-06-01T16:28:00.883Z,38.13
2019-06-01T16:30:35.992Z,37.55
2019-06-01T16:33:10.964Z,37.83
2019-06-01T16:35:45.925Z,37.73
2019-06-01T16:38:20.896Z,38.10
2019-06-01T16:40:55.769Z,37.80
2019-06-01T16:43:36.345Z,36.25
2019-06-01T16:46:17.276Z,36.90
2019-06-01T16:51:59.108Z,37.00
2019-06-01T16:54:35.319Z,37.00
2019-06-01T16:57:11.316Z,38.67
2019-06-01T16:59:54.464Z,37.40
2019-06-01T17:02:32.211Z,37.35
2019-06-01T17:05:08.613Z,37.73
2019-06-01T17:07:45.260Z,38.85
2019-06-01T17:10:26.238Z,37.77
2019-06-01T17:12:59.767Z,37.83
2019-06-01T17:18:27.990Z,36.60
2019-06-01T17:21:22.067Z,38.42
2019-06-01T17:23:57.457Z,37.78
2019-06-01T17:26:32.606Z,37.35
2019-06-01T17:29:08.311Z,37.35
2019-06-01T17:31:54.309Z,37.88
2019-06-01T17:34:26.604Z,37.53
2019-06-01T17:37:02.689Z,39.70
2019-06-01T17:39:37.979Z,38.60
2019-06-01T17:42:12.941Z,37.80
2019-06-01T17:44:47.831Z,38.02
2019-06-01T17:47:27.488Z,37.93
2019-06-01T17:52:56.663Z,38.78
2019-06-01T17:55:59.472Z,38.30
2019-06-01T17:58:37.414Z,38.20
2019-06-01T18:01:15.992Z,38.55
2019-06-01T18:03:50.852Z,38.53
2019-06-01T18:06:25.707Z,37.25
2019-06-01T18:09:01.860Z,36.75
2019-06-01T18:11:38.453Z,37.00
2019-06-01T18:14:13.377Z,36.85
2019-06-01T18:16:48.292Z,36.58
2019-06-01T18:19:23.219Z,37.17
2019-06-01T18:21:58.061Z,36.90
2019-06-01T18:24:32.883Z,36.90
2019-06-01T18:27:08.513Z,37.15
2019-06-01T18:29:48.448Z,37.13
2019-06-01T18:32:20.031Z,37.33
2019-06-01T18:34:54.856Z,36.90
2019-06-01T18:37:29.798Z,37.23
2019-06-01T18:40:05.519Z,36.98
2019-06-01T18:42:40.686Z,37.35
2019-06-01T18:45:15.792Z,36.93
2019-06-01T18:47:50.692Z,37.73
2019-06-01T18:50:25.600Z,37.20
2019-06-01T18:53:00.557Z,37.10
2019-06-01T18:55:54.572Z,37.48
2019-06-01T18:58:29.468Z,37.70
2019-06-01T19:01:04.593Z,37.53
2019-06-01T19:03:39.480Z,36.93
2019-06-01T19:06:14.328Z,37.70
2019-06-01T19:08:49.276Z,37.48
2019-06-01T19:11:32.611Z,38.17
2019-06-01T19:14:00.499Z,38.45
2019-06-01T19:16:36.660Z,37.15
2019-06-01T19:19:12.568Z,37.42
2019-06-01T19:21:47.661Z,37.50
2019-06-01T19:24:22.428Z,37.08
2019-06-01T19:26:57.268Z,37.80
2019-06-01T19:29:32.052Z,38.23
2019-06-01T19:32:06.960Z,37.65
2019-06-01T19:34:41.837Z,37.17
2019-06-01T19:37:17.569Z,37.73
2019-06-01T19:39:54.027Z,36.93
2019-06-01T19:42:28.781Z,37.20
2019-06-01T19:45:03.971Z,36.93
2019-06-01T19:47:38.839Z,36.93
2019-06-01T19:50:14.274Z,37.33
2019-06-01T19:52:49.180Z,36.85
2019-06-01T19:55:24.026Z,37.07
2019-06-01T19:57:58.797Z,36.77
2019-06-01T20:00:33.631Z,37.10
2019-06-01T20:03:08.683Z,36.90
2019-06-01T20:05:43.466Z,36.98
2019-06-01T20:08:18.297Z,37.45
2019-06-01T20:10:56.428Z,37.95
2019-06-01T20:13:31.283Z,37.00
2019-06-01T20:16:06.173Z,36.83
2019-06-01T20:18:41.136Z,37.48
2019-06-01T20:21:15.955Z,37.35
2019-06-01T20:23:50.715Z,37.45
2019-06-01T20:26:39.370Z,36.95
2019-06-01T20:29:02.122Z,36.25
2019-06-01T20:31:36.906Z,36.98
2019-06-01T20:34:12.761Z,36.90
2019-06-01T20:36:48.389Z,36.63
2019-06-01T20:39:26.179Z,37.05
2019-06-01T20:42:19.963Z,36.75
2019-06-01T20:44:37.471Z,36.83
2019-06-01T20:47:36.866Z,37.85
2019-06-01T20:50:12.828Z,37.53
2019-06-01T20:53:09.213Z,38.53
2019-06-01T20:55:44.084Z,38.00
2019-06-01T20:58:21.431Z,37.60
2019-06-01T21:01:01.083Z,37.95
2019-06-01T21:03:38.218Z,37.85
2019-06-01T21:06:15.770Z,38.88
2019-06-01T21:08:53.892Z,38.42
2019-06-01T21:11:32.141Z,38.45
2019-06-01T21:14:07.044Z,37.40
2019-06-01T21:16:41.793Z,37.28
2019-06-01T21:19:16.633Z,36.48
2019-06-01T21:21:51.523Z,36.58
2019-06-01T21:24:26.297Z,40.03
2019-06-01T21:27:01.073Z,38.65
2019-06-01T21:29:35.947Z,39.73
2019-06-01T21:32:10.776Z,40.40
2019-06-01T21:34:45.626Z,38.67
2019-06-01T21:37:21.610Z,37.38
2019-06-01T21:39:56.588Z,36.95
2019-06-01T21:42:31.446Z,37.13
2019-06-01T21:45:06.644Z,37.00
2019-06-01T21:47:41.509Z,36.83
2019-06-01T21:50:18.012Z,38.60
2019-06-01T21:52:52.979Z,36.83
2019-06-01T21:55:27.734Z,36.53
2019-06-01T21:58:02.503Z,36.70
2019-06-01T22:00:38.651Z,36.98
2019-06-01T22:03:14.820Z,36.73
2019-06-01T22:05:49.643Z,36.73
2019-06-01T22:08:25.327Z,36.33
2019-06-01T22:11:00.445Z,36.95
2019-06-01T22:13:35.315Z,36.48
2019-06-01T22:16:11.035Z,36.25
2019-06-01T22:18:45.826Z,36.63
2019-06-01T22:21:21.647Z,36.68
2019-06-01T22:23:56.639Z,36.60
2019-06-01T22:26:31.489Z,36.85
2019-06-01T22:29:06.455Z,37.03
2019-06-01T22:31:41.388Z,37.15
2019-06-01T22:34:16.235Z,36.98
2019-06-01T22:36:50.989Z,36.95
2019-06-01T22:39:27.009Z,37.75
2019-06-01T22:42:03.436Z,37.15
2019-06-01T22:44:38.208Z,36.95
2019-06-01T22:47:12.969Z,37.28
2019-06-01T22:49:48.812Z,36.70
2019-06-01T22:52:25.030Z,36.65
2019-06-01T22:55:00.064Z,36.73
2019-06-01T22:57:34.892Z,36.65
2019-06-01T23:00:11.284Z,36.85
2019-06-01T23:02:46.100Z,37.90
2019-06-01T23:05:21.075Z,36.80
2019-06-01T23:07:55.944Z,36.77
2019-06-01T23:10:35.159Z,37.90
2019-06-01T23:13:07.256Z,38.60
2019-06-01T23:15:42.086Z,38.38
2019-06-01T23:18:16.913Z,39.15
2019-06-01T23:20:51.820Z,38.50
2019-06-01T23:23:26.612Z,39.10
2019-06-01T23:26:01.377Z,37.48
2019-06-01T23:28:38.643Z,37.83
2019-06-01T23:31:12.725Z,37.83
2019-06-01T23:34:06.821Z,36.60
2019-06-01T23:36:41.728Z,35.78
2019-06-01T23:39:18.028Z,36.90
2019-06-01T23:41:52.776Z,36.88
2019-06-01T23:44:30.702Z,36.45
2019-06-01T23:47:04.192Z,36.95
2019-06-01T23:49:39.136Z,36.30
2019-06-01T23:52:13.896Z,36.28
2019-06-01T23:54:48.744Z,36.42
2019-06-01T23:57:23.755Z,36.17
2019-06-01T23:59:58.675Z,36.20
